Time;durP1;ratioP1;P1;durP2;ratioP2;P2;SDS_P1;SDS_P2;PMS_P1;PMS_P2;Temp;Humidity;BMP_temperature;BMP_pressure;BME280_temperature;BME280_humidity;BME280_pressure;Samples;Min_cycle;Max_cycle;Signal;HPM_P1;HPM_P2
2024/01/07 00:00:52;;;;;;;5.03;3.97;;;;;5.50;98032.00;;;;5071419;28;20044;-63
2024/01/07 00:03:18;;;;;;;5.43;4.10;;;;;5.40;98025.00;;;;5074378;28;20040;-62
2024/01/07 00:05:46;;;;;;;5.13;4.15;;;;;5.40;98034.00;;;;5057243;28;20058;-64
2024/01/07 00:08:13;;;;;;;4.63;3.80;;;;;5.40;98032.00;;;;5074396;28;20045;-62
2024/01/07 00:10:40;;;;;;;6.03;4.85;;;;;5.40;98033.00;;;;5075188;28;20036;-63
2024/01/07 00:13:06;;;;;;;5.38;4.47;;;;;5.50;98028.00;;;;5075208;28;20401;-63
2024/01/07 00:15:33;;;;;;;5.32;4.20;;;;;5.40;98029.00;;;;5074876;28;20513;-64
2024/01/07 00:18:00;;;;;;;6.78;4.40;;;;;5.40;98026.00;;;;5073879;28;20044;-63
2024/01/07 00:20:26;;;;;;;4.80;4.10;;;;;5.40;98034.00;;;;5075074;28;20132;-62
2024/01/07 00:22:53;;;;;;;5.68;4.00;;;;;5.40;98025.00;;;;5073886;28;20048;-62
2024/01/07 00:25:20;;;;;;;4.57;4.05;;;;;5.30;98026.00;;;;5073112;28;20501;-63
2024/01/07 00:27:46;;;;;;;5.57;4.28;;;;;5.40;98039.00;;;;5074905;28;20048;-65
2024/01/07 00:30:13;;;;;;;5.15;4.15;;;;;5.40;98037.00;;;;5073760;28;20449;-65
2024/01/07 00:32:40;;;;;;;5.18;4.35;;;;;5.40;98041.00;;;;5074876;28;20052;-65
2024/01/07 00:35:07;;;;;;;4.57;4.13;;;;;5.40;98044.00;;;;5073065;28;20120;-65
2024/01/07 00:37:34;;;;;;;6.47;4.57;;;;;5.50;98043.00;;;;5074760;28;20505;-62
2024/01/07 00:40:01;;;;;;;6.43;4.60;;;;;5.50;98043.00;;;;5073349;28;20144;-66
2024/01/07 00:42:28;;;;;;;7.25;5.25;;;;;5.60;98044.00;;;;5073398;28;20053;-63
2024/01/07 00:44:55;;;;;;;6.10;4.78;;;;;5.60;98056.00;;;;5074174;28;20044;-64
2024/01/07 00:47:21;;;;;;;5.20;4.43;;;;;5.50;98050.00;;;;5074725;28;20040;-64
2024/01/07 00:49:48;;;;;;;5.32;4.25;;;;;5.50;98043.00;;;;5073213;28;20691;-64
2024/01/07 00:52:14;;;;;;;5.95;4.55;;;;;5.40;98053.00;;;;5074585;28;20055;-63
2024/01/07 00:54:41;;;;;;;4.82;4.32;;;;;5.20;98053.00;;;;5072840;28;20048;-64
2024/01/07 00:57:07;;;;;;;5.70;4.35;;;;;5.10;98052.00;;;;5074534;28;20117;-64
2024/01/07 00:59:34;;;;;;;6.05;4.55;;;;;5.10;98061.00;;;;5072966;28;20139;-64
2024/01/07 01:02:01;;;;;;;6.07;5.10;;;;;5.00;98061.00;;;;5073204;28;20041;-63
2024/01/07 01:04:28;;;;;;;6.85;4.82;;;;;5.10;98057.00;;;;5072389;28;20055;-64
2024/01/07 01:06:54;;;;;;;6.55;4.97;;;;;5.20;98070.00;;;;5073061;28;20101;-64
2024/01/07 01:09:21;;;;;;;5.97;4.53;;;;;5.30;98071.00;;;;5074139;28;20098;-61
2024/01/07 01:11:49;;;;;;;7.43;5.30;;;;;5.30;98071.00;;;;5072995;28;20067;-64
2024/01/07 01:14:16;;;;;;;6.75;4.97;;;;;5.40;98074.00;;;;5073525;28;20118;-64
2024/01/07 01:16:42;;;;;;;6.65;4.13;;;;;5.40;98088.00;;;;5072838;28;20090;-64
2024/01/07 01:19:09;;;;;;;6.47;4.57;;;;;5.40;98078.00;;;;5072457;28;20067;-63
2024/01/07 01:21:36;;;;;;;7.82;5.25;;;;;5.60;98090.00;;;;5073196;28;20048;-63
2024/01/07 01:24:04;;;;;;;5.57;4.70;;;;;5.60;98083.00;;;;5072133;28;20044;-63
2024/01/07 01:26:30;;;;;;;6.20;5.25;;;;;5.60;98081.00;;;;5073963;28;20055;-64
2024/01/07 01:28:57;;;;;;;7.25;5.65;;;;;5.50;98082.00;;;;5072739;28;20052;-64
2024/01/07 01:31:23;;;;;;;8.90;6.30;;;;;5.60;98084.00;;;;5074123;28;20491;-63
2024/01/07 01:33:50;;;;;;;6.72;5.22;;;;;5.60;98078.00;;;;5071829;28;20044;-64
2024/01/07 01:36:17;;;;;;;6.45;5.30;;;;;5.60;98080.00;;;;5072575;28;20046;-64
2024/01/07 01:38:43;;;;;;;9.18;6.05;;;;;5.60;98081.00;;;;5073644;28;20104;-64
2024/01/07 01:41:10;;;;;;;7.80;5.70;;;;;5.70;98083.00;;;;5073413;28;20119;-64
2024/01/07 01:43:36;;;;;;;8.88;6.20;;;;;5.60;98077.00;;;;5073042;28;20561;-62
2024/01/07 01:46:03;;;;;;;9.23;6.38;;;;;5.70;98088.00;;;;5073586;28;20063;-62
2024/01/07 01:48:30;;;;;;;8.35;5.47;;;;;5.80;98088.00;;;;5072074;28;20040;-62
2024/01/07 01:50:57;;;;;;;7.97;6.40;;;;;5.80;98089.00;;;;5073435;28;20044;-62
2024/01/07 01:53:28;;;;;;;7.35;5.60;;;;;5.90;98089.00;;;;5072751;28;20090;-62
2024/01/07 01:55:57;;;;;;;7.03;5.32;;;;;5.80;98093.00;;;;5073272;28;20082;-62
2024/01/07 01:58:24;;;;;;;8.50;5.35;;;;;5.70;98086.00;;;;5071819;28;20143;-61
2024/01/07 02:00:50;;;;;;;8.15;6.32;;;;;5.60;98084.00;;;;5055334;28;20082;-61
2024/01/07 02:03:18;;;;;;;7.68;5.95;;;;;5.70;98085.00;;;;5071908;28;20114;-61
2024/01/07 02:05:45;;;;;;;9.60;6.70;;;;;5.70;98091.00;;;;5072249;28;20062;-62
2024/01/07 02:08:12;;;;;;;8.38;6.20;;;;;5.70;98087.00;;;;5071823;28;20059;-61
2024/01/07 02:10:38;;;;;;;8.93;6.07;;;;;5.70;98089.00;;;;5072988;28;20711;-62
2024/01/07 02:13:08;;;;;;;7.65;6.20;;;;;5.80;98099.00;;;;5071688;28;20558;-62
2024/01/07 02:15:35;;;;;;;8.18;6.32;;;;;5.90;98100.00;;;;5071027;28;20119;-62
2024/01/07 02:18:01;;;;;;;7.82;6.00;;;;;5.80;98096.00;;;;5071586;28;20109;-61
2024/01/07 02:20:28;;;;;;;8.27;6.22;;;;;5.70;98098.00;;;;5072877;28;20498;-61
2024/01/07 02:22:57;;;;;;;7.93;6.03;;;;;5.70;98089.00;;;;5073035;28;20119;-63
2024/01/07 02:25:24;;;;;;;9.70;5.95;;;;;5.70;98099.00;;;;5070258;28;20489;-61
2024/01/07 02:27:50;;;;;;;7.32;5.55;;;;;5.60;98105.00;;;;5071687;28;20493;-61
2024/01/07 02:30:17;;;;;;;7.22;5.35;;;;;5.40;98101.00;;;;5072966;28;20036;-62
2024/01/07 02:32:44;;;;;;;7.28;5.40;;;;;5.50;98103.00;;;;5073571;28;20056;-61
2024/01/07 02:35:11;;;;;;;7.10;5.43;;;;;5.40;98101.00;;;;5073291;28;20157;-61
2024/01/07 02:37:37;;;;;;;7.07;5.38;;;;;5.20;98098.00;;;;5073888;28;20075;-62
2024/01/07 02:40:04;;;;;;;6.65;5.28;;;;;5.10;98112.00;;;;5073827;28;20044;-61
2024/01/07 02:42:31;;;;;;;7.18;4.93;;;;;5.20;98101.00;;;;5072129;28;20398;-65
2024/01/07 02:44:58;;;;;;;7.53;5.25;;;;;5.20;98100.00;;;;5078840;28;20054;-63
2024/01/07 02:47:25;;;;;;;7.38;5.30;;;;;5.10;98099.00;;;;5079568;28;20127;-61
2024/01/07 02:49:52;;;;;;;6.63;5.13;;;;;5.00;98095.00;;;;5078709;28;20091;-64
2024/01/07 02:52:18;;;;;;;7.32;5.72;;;;;5.10;98096.00;;;;5079409;28;20526;-63
2024/01/07 02:54:45;;;;;;;8.43;5.30;;;;;5.10;98097.00;;;;5074666;28;20124;-63
2024/01/07 02:57:11;;;;;;;7.63;5.05;;;;;5.00;98089.00;;;;5075243;28;20075;-64
2024/01/07 02:59:38;;;;;;;6.93;4.95;;;;;5.00;98108.00;;;;5073740;28;20545;-62
2024/01/07 03:02:04;;;;;;;7.20;5.53;;;;;5.00;98101.00;;;;5071561;28;20044;-62
2024/01/07 03:04:31;;;;;;;7.40;5.68;;;;;5.10;98105.00;;;;5072900;28;20041;-63
2024/01/07 03:06:58;;;;;;;6.82;5.28;;;;;5.10;98108.00;;;;5073677;28;20127;-63
2024/01/07 03:09:25;;;;;;;6.20;5.00;;;;;5.00;98106.00;;;;5073101;28;20055;-64
2024/01/07 03:11:52;;;;;;;6.68;5.35;;;;;5.00;98104.00;;;;5076797;28;20442;-63
2024/01/07 03:14:20;;;;;;;8.07;5.57;;;;;5.10;98107.00;;;;5074534;28;20044;-63
2024/01/07 03:16:46;;;;;;;7.22;5.70;;;;;5.20;98111.00;;;;5074681;28;20544;-62
2024/01/07 03:19:13;;;;;;;6.55;5.43;;;;;5.20;98116.00;;;;5076042;28;20063;-63
2024/01/07 03:21:40;;;;;;;7.45;5.05;;;;;5.10;98126.00;;;;5073208;28;20060;-63
2024/01/07 03:24:07;;;;;;;7.20;5.40;;;;;5.00;98113.00;;;;5074526;28;20158;-65
2024/01/07 03:26:33;;;;;;;7.50;5.40;;;;;4.80;98115.00;;;;5075181;28;20047;-63
2024/01/07 03:29:01;;;;;;;7.72;5.55;;;;;4.80;98115.00;;;;5076414;28;20118;-63
2024/01/07 03:31:28;;;;;;;8.85;5.75;;;;;4.80;98117.00;;;;5074911;28;20045;-62
2024/01/07 03:33:56;;;;;;;7.45;5.43;;;;;4.80;98115.00;;;;5071631;28;20536;-63
2024/01/07 03:36:23;;;;;;;8.38;5.72;;;;;4.90;98112.00;;;;5072256;28;20127;-62
2024/01/07 03:38:50;;;;;;;9.52;6.13;;;;;4.90;98117.00;;;;5075986;28;20062;-62
2024/01/07 03:41:18;;;;;;;7.18;5.20;;;;;4.90;98122.00;;;;5076004;28;20048;-64
2024/01/07 03:43:46;;;;;;;7.47;5.60;;;;;4.90;98119.00;;;;5075708;28;20053;-62
2024/01/07 03:46:13;;;;;;;7.88;5.63;;;;;5.00;98118.00;;;;5075934;28;20043;-62
2024/01/07 03:48:41;;;;;;;7.88;5.70;;;;;5.10;98130.00;;;;5075778;28;20106;-62
2024/01/07 03:51:07;;;;;;;7.90;5.25;;;;;5.10;98125.00;;;;5074639;28;20056;-63
2024/01/07 03:53:34;;;;;;;7.40;5.47;;;;;5.00;98124.00;;;;5074000;28;20055;-62
2024/01/07 03:56:00;;;;;;;8.32;5.93;;;;;5.10;98126.00;;;;5075672;28;20044;-63
2024/01/07 03:58:27;;;;;;;10.18;6.68;;;;;5.20;98131.00;;;;5075704;28;20045;-61
2024/01/07 04:00:54;;;;;;;8.80;6.38;;;;;5.30;98129.00;;;;5075642;28;20476;-63
2024/01/07 04:03:20;;;;;;;9.65;6.47;;;;;5.40;98141.00;;;;5075290;28;20136;-63
2024/01/07 04:05:47;;;;;;;8.35;5.88;;;;;5.40;98135.00;;;;5075229;28;20048;-62
2024/01/07 04:08:19;;;;;;;8.65;6.85;;;;;5.40;98142.00;;;;5075358;28;20097;-64
2024/01/07 04:10:46;;;;;;;9.32;6.65;;;;;5.50;98150.00;;;;5075119;28;20040;-63
2024/01/07 04:13:13;;;;;;;8.82;6.38;;;;;5.50;98137.00;;;;5075205;28;20124;-62
2024/01/07 04:15:39;;;;;;;9.25;6.00;;;;;5.50;98138.00;;;;5074481;28;20098;-62
2024/01/07 04:18:06;;;;;;;10.07;6.82;;;;;5.60;98147.00;;;;5074095;28;20045;-66
2024/01/07 04:20:32;;;;;;;7.68;5.30;;;;;5.60;98144.00;;;;5075086;28;20425;-63
2024/01/07 04:22:59;;;;;;;8.43;6.10;;;;;5.50;98143.00;;;;5075047;28;20074;-62
2024/01/07 04:25:26;;;;;;;7.53;6.20;;;;;5.50;98148.00;;;;5072879;28;20051;-62
2024/01/07 04:27:52;;;;;;;7.57;5.70;;;;;5.50;98144.00;;;;5075117;28;20048;-64
2024/01/07 04:30:19;;;;;;;6.88;5.25;;;;;5.50;98140.00;;;;5074963;28;20072;-63
2024/01/07 04:32:46;;;;;;;7.45;5.47;;;;;5.50;98138.00;;;;5074891;28;20041;-62
2024/01/07 04:35:12;;;;;;;7.72;5.75;;;;;5.50;98139.00;;;;5074144;28;20584;-65
2024/01/07 04:37:39;;;;;;;8.40;5.65;;;;;5.40;98146.00;;;;5074710;28;20119;-63
2024/01/07 04:40:06;;;;;;;8.50;6.03;;;;;5.40;98148.00;;;;5074598;28;20051;-62
2024/01/07 04:42:33;;;;;;;8.20;5.90;;;;;5.40;98150.00;;;;5074654;28;20481;-62
2024/01/07 04:45:00;;;;;;;8.10;5.60;;;;;5.30;98148.00;;;;5072857;28;20044;-62
2024/01/07 04:47:29;;;;;;;7.82;5.43;;;;;5.30;98159.00;;;;5073946;28;20052;-62
2024/01/07 04:49:57;;;;;;;6.75;5.25;;;;;5.30;98161.00;;;;5074486;28;20051;-62
2024/01/07 04:52:25;;;;;;;7.05;5.38;;;;;5.20;98162.00;;;;5074459;28;20401;-62
2024/01/07 04:54:55;;;;;;;6.95;5.50;;;;;5.20;98167.00;;;;5072613;28;20075;-62
2024/01/07 04:57:22;;;;;;;7.50;5.70;;;;;5.10;98171.00;;;;5073098;28;20135;-62
2024/01/07 04:59:49;;;;;;;7.15;5.07;;;;;5.00;98166.00;;;;5074390;28;20075;-62
2024/01/07 05:02:16;;;;;;;6.97;5.40;;;;;5.00;98164.00;;;;5074399;28;20596;-61
2024/01/07 05:04:43;;;;;;;6.35;4.78;;;;;5.00;98172.00;;;;5073739;28;20044;-65
2024/01/07 05:07:10;;;;;;;5.82;5.03;;;;;5.10;98170.00;;;;5074106;28;20481;-60
2024/01/07 05:09:36;;;;;;;6.38;4.70;;;;;5.10;98173.00;;;;5072921;28;20059;-61
2024/01/07 05:12:03;;;;;;;5.22;4.72;;;;;5.10;98168.00;;;;5074593;28;20055;-61
2024/01/07 05:14:30;;;;;;;6.53;4.63;;;;;5.00;98174.00;;;;5073613;28;20050;-61
2024/01/07 05:16:56;;;;;;;6.43;4.78;;;;;5.00;98171.00;;;;5073010;28;20044;-60
2024/01/07 05:19:23;;;;;;;7.88;4.65;;;;;5.00;98179.00;;;;5072692;28;20087;-61
2024/01/07 05:21:50;;;;;;;7.72;5.78;;;;;5.00;98175.00;;;;5073888;28;20047;-61
2024/01/07 05:24:17;;;;;;;8.05;5.35;;;;;5.00;98177.00;;;;5073267;28;20049;-61
2024/01/07 05:26:44;;;;;;;5.95;4.30;;;;;5.00;98175.00;;;;5074004;28;20494;-61
2024/01/07 05:29:11;;;;;;;5.97;4.38;;;;;5.00;98173.00;;;;5073782;28;20041;-61
2024/01/07 05:31:40;;;;;;;6.22;4.20;;;;;5.00;98187.00;;;;5073841;28;20427;-61
2024/01/07 05:34:06;;;;;;;5.07;4.10;;;;;5.10;98192.00;;;;5071701;28;20048;-62
2024/01/07 05:36:33;;;;;;;6.07;4.05;;;;;5.10;98187.00;;;;5072570;28;20127;-61
2024/01/07 05:39:00;;;;;;;4.18;3.47;;;;;5.00;98192.00;;;;5073559;28;20048;-64
2024/01/07 05:41:27;;;;;;;7.10;4.05;;;;;5.10;98191.00;;;;5072250;28;20048;-61
2024/01/07 05:43:53;;;;;;;5.15;3.88;;;;;5.10;98186.00;;;;5073124;28;20048;-61
2024/01/07 05:46:20;;;;;;;5.32;3.88;;;;;5.00;98192.00;;;;5073745;28;20131;-60
2024/01/07 05:48:49;;;;;;;5.03;4.07;;;;;4.90;98199.00;;;;5073395;28;20080;-61
2024/01/07 05:51:16;;;;;;;5.85;4.25;;;;;4.90;98193.00;;;;5073323;28;20047;-61
2024/01/07 05:53:44;;;;;;;5.78;3.92;;;;;5.00;98198.00;;;;5071321;28;20049;-61
2024/01/07 05:56:11;;;;;;;5.60;4.15;;;;;5.10;98207.00;;;;5073172;28;20049;-61
2024/01/07 05:58:37;;;;;;;6.30;4.30;;;;;5.00;98202.00;;;;5073198;28;20409;-61
2024/01/07 06:01:04;;;;;;;6.32;4.47;;;;;4.90;98202.00;;;;5071037;28;20051;-60
2024/01/07 06:03:31;;;;;;;6.82;4.97;;;;;4.90;98204.00;;;;5072500;28;20048;-61
2024/01/07 06:05:58;;;;;;;6.25;4.78;;;;;4.90;98212.00;;;;5073233;28;20068;-60
2024/01/07 06:08:26;;;;;;;7.72;4.55;;;;;4.90;98209.00;;;;5073007;28;20040;-63
2024/01/07 06:10:52;;;;;;;7.88;4.97;;;;;4.80;98211.00;;;;5072917;28;20508;-61
2024/01/07 06:13:19;;;;;;;6.97;5.35;;;;;4.80;98218.00;;;;5072851;28;20405;-65
2024/01/07 06:15:46;;;;;;;7.05;4.88;;;;;4.90;98217.00;;;;5072538;28;20123;-61
2024/01/07 06:18:12;;;;;;;7.50;5.35;;;;;4.70;98221.00;;;;5071541;28;20125;-61
2024/01/07 06:20:39;;;;;;;8.95;5.63;;;;;4.60;98216.00;;;;5072732;28;20510;-61
2024/01/07 06:23:06;;;;;;;8.10;6.20;;;;;4.60;98225.00;;;;5072673;28;20036;-62
2024/01/07 06:25:32;;;;;;;8.05;5.80;;;;;4.70;98220.00;;;;5054224;28;20056;-61
2024/01/07 06:27:59;;;;;;;9.15;6.72;;;;;4.70;98217.00;;;;5071258;28;20048;-60
2024/01/07 06:30:26;;;;;;;9.00;6.70;;;;;4.60;98232.00;;;;5054877;28;20106;-62
2024/01/07 06:32:53;;;;;;;9.73;6.80;;;;;4.60;98227.00;;;;5072477;28;20048;-62
2024/01/07 06:35:19;;;;;;;6.95;5.30;;;;;4.60;98231.00;;;;5071940;28;20051;-60
2024/01/07 06:37:46;;;;;;;8.48;6.07;;;;;4.60;98234.00;;;;5071213;28;20045;-62
2024/01/07 06:40:13;;;;;;;11.15;6.85;;;;;4.60;98236.00;;;;5072604;28;20493;-62
2024/01/07 06:42:41;;;;;;;8.18;6.28;;;;;4.50;98242.00;;;;5072602;28;20052;-60
2024/01/07 06:45:08;;;;;;;7.82;6.15;;;;;4.50;98239.00;;;;5071829;28;20052;-61
2024/01/07 06:47:34;;;;;;;8.45;6.22;;;;;4.60;98247.00;;;;5072728;28;20068;-61
2024/01/07 06:50:01;;;;;;;8.60;5.78;;;;;4.60;98245.00;;;;5072415;28;20082;-61
2024/01/07 06:52:28;;;;;;;9.38;6.15;;;;;4.70;98259.00;;;;5072355;28;20056;-61
2024/01/07 06:54:54;;;;;;;8.13;5.30;;;;;4.70;98251.00;;;;5071695;28;20123;-62
2024/01/07 06:57:21;;;;;;;8.68;6.15;;;;;4.60;98258.00;;;;5072151;28;20044;-61
2024/01/07 06:59:48;;;;;;;11.18;6.90;;;;;4.60;98263.00;;;;5072282;28;20409;-61
2024/01/07 07:02:14;;;;;;;10.35;6.80;;;;;4.60;98263.00;;;;5072262;28;20044;-60
2024/01/07 07:04:41;;;;;;;9.85;6.82;;;;;4.60;98268.00;;;;5071590;28;20040;-64
2024/01/07 07:07:07;;;;;;;9.55;6.85;;;;;4.50;98267.00;;;;5070640;28;20114;-61
2024/01/07 07:09:34;;;;;;;10.07;6.90;;;;;4.60;98279.00;;;;5071850;28;20051;-61
2024/01/07 07:12:01;;;;;;;9.73;6.68;;;;;4.70;98272.00;;;;5071766;28;20051;-64
2024/01/07 07:14:27;;;;;;;11.02;6.50;;;;;4.80;98289.00;;;;5071417;28;20124;-62
2024/01/07 07:16:54;;;;;;;9.68;6.68;;;;;4.80;98292.00;;;;5072296;28;20494;-61
2024/01/07 07:19:20;;;;;;;10.48;6.72;;;;;4.80;98286.00;;;;5071940;28;20129;-62
2024/01/07 07:21:47;;;;;;;11.23;6.53;;;;;4.80;98275.00;;;;5070604;28;20048;-64
2024/01/07 07:24:14;;;;;;;10.10;6.88;;;;;4.80;98291.00;;;;5071336;28;20488;-61
2024/01/07 07:26:40;;;;;;;10.45;7.15;;;;;4.80;98294.00;;;;5071798;28;20527;-61
2024/01/07 07:29:09;;;;;;;9.95;6.95;;;;;4.70;98295.00;;;;5070610;28;20148;-60
2024/01/07 07:31:36;;;;;;;12.20;6.68;;;;;4.80;98294.00;;;;5070671;28;20045;-61
2024/01/07 07:34:09;;;;;;;9.73;5.88;;;;;4.80;98306.00;;;;5071150;28;20045;-61
2024/01/07 07:36:35;;;;;;;11.88;7.78;;;;;4.80;98309.00;;;;5071823;28;20094;-61
2024/01/07 07:39:02;;;;;;;12.52;7.65;;;;;4.80;98312.00;;;;5071567;28;20054;-62
2024/01/07 07:41:28;;;;;;;8.95;6.15;;;;;4.80;98313.00;;;;5071637;28;20430;-61
2024/01/07 07:43:55;;;;;;;10.68;6.63;;;;;4.80;98318.00;;;;5071445;28;20051;-60
2024/01/07 07:46:22;;;;;;;11.55;8.02;;;;;4.80;98313.00;;;;5072075;28;20051;-63
2024/01/07 07:48:48;;;;;;;10.95;6.88;;;;;4.80;98310.00;;;;5072026;28;20557;-61
2024/01/07 07:51:15;;;;;;;10.18;6.93;;;;;4.70;98318.00;;;;5072087;28;20072;-61
2024/01/07 07:53:41;;;;;;;11.65;7.72;;;;;4.80;98319.00;;;;5071464;28;20485;-61
2024/01/07 07:56:08;;;;;;;8.40;6.13;;;;;4.80;98322.00;;;;5070557;28;20504;-63
2024/01/07 07:58:35;;;;;;;9.77;6.60;;;;;4.80;98324.00;;;;5071654;28;20040;-62
2024/01/07 08:01:01;;;;;;;9.40;6.22;;;;;4.90;98322.00;;;;5071562;28;20067;-62
2024/01/07 08:03:28;;;;;;;8.50;6.22;;;;;4.90;98333.00;;;;5070953;28;20052;-62
2024/01/07 08:05:55;;;;;;;9.35;6.15;;;;;4.90;98332.00;;;;5071478;28;20498;-62
2024/01/07 08:08:22;;;;;;;10.25;7.20;;;;;4.90;98329.00;;;;5071546;28;20040;-62
2024/01/07 08:10:48;;;;;;;8.93;5.93;;;;;4.80;98333.00;;;;5071615;28;20044;-62
2024/01/07 08:13:15;;;;;;;13.07;8.70;;;;;4.80;98341.00;;;;5070443;28;20044;-62
2024/01/07 08:15:42;;;;;;;13.60;7.38;;;;;4.80;98343.00;;;;5070826;28;20379;-60
2024/01/07 08:18:09;;;;;;;11.60;7.68;;;;;4.80;98339.00;;;;5071256;28;20440;-62
2024/01/07 08:20:35;;;;;;;15.07;10.23;;;;;5.00;98346.00;;;;5070285;28;20056;-61
2024/01/07 08:23:02;;;;;;;12.05;6.85;;;;;5.00;98346.00;;;;5072166;28;20119;-62
2024/01/07 08:25:29;;;;;;;9.73;6.53;;;;;5.00;98353.00;;;;5073413;28;20049;-64
2024/01/07 08:27:55;;;;;;;11.23;6.60;;;;;4.90;98356.00;;;;5074917;28;20070;-62
2024/01/07 08:30:23;;;;;;;10.80;6.45;;;;;4.80;98362.00;;;;5074975;28;20054;-62
2024/01/07 08:32:50;;;;;;;8.65;6.10;;;;;4.80;98363.00;;;;5075091;28;20040;-62
2024/01/07 08:35:16;;;;;;;10.25;6.47;;;;;4.70;98358.00;;;;5072800;28;20048;-62
2024/01/07 08:37:46;;;;;;;8.18;6.10;;;;;4.70;98363.00;;;;5074839;28;20409;-63
2024/01/07 08:40:13;;;;;;;9.10;6.32;;;;;4.70;98371.00;;;;5073695;28;20127;-63
2024/01/07 08:42:41;;;;;;;10.40;6.82;;;;;4.70;98359.00;;;;5073594;28;20110;-62
2024/01/07 08:45:08;;;;;;;10.13;6.75;;;;;4.70;98361.00;;;;5074169;28;20083;-64
2024/01/07 08:47:36;;;;;;;10.75;6.70;;;;;4.80;98379.00;;;;5074615;28;20486;-62
2024/01/07 08:50:08;;;;;;;8.98;6.38;;;;;4.80;98372.00;;;;5073180;28;20053;-62
2024/01/07 08:52:35;;;;;;;7.78;6.03;;;;;4.80;98370.00;;;;5074552;28;20040;-62
2024/01/07 08:55:05;;;;;;;8.70;5.95;;;;;4.80;98375.00;;;;5073754;28;20037;-65
2024/01/07 08:57:32;;;;;;;7.22;5.82;;;;;4.80;98373.00;;;;5073326;28;20455;-62
2024/01/07 08:59:59;;;;;;;10.10;6.70;;;;;4.70;98375.00;;;;5074430;28;20044;-62
2024/01/07 09:02:26;;;;;;;7.80;5.82;;;;;4.70;98375.00;;;;5074225;28;20050;-64
2024/01/07 09:04:52;;;;;;;6.93;5.57;;;;;4.80;98388.00;;;;5073765;28;20385;-62
2024/01/07 09:07:19;;;;;;;8.63;5.18;;;;;4.90;98382.00;;;;5074104;28;20036;-62
2024/01/07 09:09:46;;;;;;;7.43;5.35;;;;;5.00;98386.00;;;;5074197;28;20050;-62
2024/01/07 09:12:12;;;;;;;6.80;4.85;;;;;5.00;98388.00;;;;5072917;28;20512;-63
2024/01/07 09:14:39;;;;;;;8.27;6.28;;;;;5.00;98384.00;;;;5072416;28;20048;-62
2024/01/07 09:17:05;;;;;;;8.07;5.68;;;;;5.10;98393.00;;;;5073997;28;20050;-62
2024/01/07 09:19:32;;;;;;;7.47;5.75;;;;;5.10;98399.00;;;;5074066;28;20441;-62
2024/01/07 09:21:59;;;;;;;7.03;5.57;;;;;5.00;98404.00;;;;5073977;28;20090;-62
2024/01/07 09:24:26;;;;;;;8.68;6.35;;;;;5.00;98405.00;;;;5073458;28;20051;-61
2024/01/07 09:26:53;;;;;;;8.15;5.40;;;;;5.20;98410.00;;;;5074126;28;20456;-63
2024/01/07 09:29:20;;;;;;;16.48;9.52;;;;;5.00;98408.00;;;;5072619;28;20489;-62
2024/01/07 09:31:46;;;;;;;7.85;5.88;;;;;4.90;98410.00;;;;5073904;28;20672;-62
2024/01/07 09:34:13;;;;;;;8.02;5.45;;;;;4.90;98409.00;;;;5073083;28;20105;-63
2024/01/07 09:36:40;;;;;;;8.27;5.75;;;;;4.90;98416.00;;;;5073752;28;20083;-62
2024/01/07 09:39:06;;;;;;;8.40;5.57;;;;;4.90;98415.00;;;;5073652;28;20048;-63
2024/01/07 09:41:33;;;;;;;10.70;6.07;;;;;4.90;98432.00;;;;5073465;28;20465;-63
2024/01/07 09:44:00;;;;;;;10.93;6.53;;;;;4.90;98431.00;;;;5073191;28;20040;-63
2024/01/07 09:46:29;;;;;;;10.27;6.97;;;;;4.80;98427.00;;;;5073663;28;20079;-62
2024/01/07 09:48:56;;;;;;;10.65;7.95;;;;;4.70;98430.00;;;;5072006;28;20098;-62
2024/01/07 09:51:23;;;;;;;8.27;6.45;;;;;4.80;98431.00;;;;5073605;28;20040;-62
2024/01/07 09:53:56;;;;;;;9.88;6.20;;;;;4.80;98429.00;;;;5071698;28;20041;-63
2024/01/07 09:56:25;;;;;;;9.20;6.25;;;;;4.70;98422.00;;;;5073355;28;20120;-63
2024/01/07 09:58:52;;;;;;;9.68;6.70;;;;;4.60;98426.00;;;;5073078;28;20136;-63
2024/01/07 10:01:18;;;;;;;9.10;6.95;;;;;4.60;98423.00;;;;5073283;28;20086;-63
2024/01/07 10:03:46;;;;;;;8.77;6.32;;;;;4.60;98432.00;;;;5071443;28;20040;-65
2024/01/07 10:06:13;;;;;;;8.05;5.85;;;;;4.70;98428.00;;;;5073243;28;20075;-60
2024/01/07 10:08:40;;;;;;;7.68;5.88;;;;;4.80;98446.00;;;;5072934;28;20052;-64
2024/01/07 10:11:09;;;;;;;8.15;6.10;;;;;4.70;98426.00;;;;5073021;28;20049;-62
2024/01/07 10:13:36;;;;;;;8.43;6.10;;;;;4.70;98445.00;;;;5072361;28;20079;-62
2024/01/07 10:16:03;;;;;;;9.65;6.40;;;;;4.70;98431.00;;;;5072919;28;20046;-63
2024/01/07 10:18:31;;;;;;;8.57;6.30;;;;;4.60;98436.00;;;;5073029;28;20044;-62
2024/01/07 10:21:03;;;;;;;8.27;6.78;;;;;4.60;98436.00;;;;5073192;28;20670;-62
2024/01/07 10:23:30;;;;;;;9.18;6.45;;;;;4.60;98436.00;;;;5054582;28;20049;-63
2024/01/07 10:25:57;;;;;;;11.18;7.78;;;;;4.50;98444.00;;;;5072653;28;20106;-61
2024/01/07 10:28:28;;;;;;;12.20;7.72;;;;;4.60;98438.00;;;;5072853;28;20131;-63
2024/01/07 10:30:55;;;;;;;9.60;6.85;;;;;4.60;98436.00;;;;5072835;28;20076;-62
2024/01/07 10:33:23;;;;;;;11.85;7.38;;;;;4.60;98438.00;;;;5072383;28;20048;-65
2024/01/07 10:36:03;;;;;;;11.30;7.78;;;;;4.60;98436.00;;;;5072462;28;20046;-63
2024/01/07 10:38:33;;;;;;;12.85;7.20;;;;;4.70;98446.00;;;;5072621;28;20045;-61
2024/01/07 10:41:00;;;;;;;11.63;7.43;;;;;4.70;98445.00;;;;5072409;28;20040;-64
2024/01/07 10:43:29;;;;;;;10.60;7.05;;;;;4.70;98438.00;;;;5071850;28;20060;-63
2024/01/07 10:46:00;;;;;;;11.18;6.60;;;;;4.60;98441.00;;;;5072078;28;20094;-64
2024/01/07 10:48:32;;;;;;;9.80;7.00;;;;;4.60;98460.00;;;;5071055;28;20048;-63
2024/01/07 10:51:00;;;;;;;10.93;7.25;;;;;4.50;98444.00;;;;5073133;28;20074;-64
2024/01/07 10:53:32;;;;;;;11.95;7.68;;;;;4.40;98451.00;;;;5071112;28;20131;-64
2024/01/07 10:56:11;;;;;;;11.85;7.60;;;;;4.30;98449.00;;;;5071865;28;20063;-64
2024/01/07 10:58:39;;;;;;;8.40;6.32;;;;;4.40;98441.00;;;;5072742;28;20131;-64
2024/01/07 11:01:07;;;;;;;9.23;6.85;;;;;4.40;98454.00;;;;5072624;28;20044;-63
2024/01/07 11:03:43;;;;;;;12.45;7.15;;;;;4.50;98448.00;;;;5071668;28;20040;-64
2024/01/07 11:06:25;;;;;;;12.43;7.80;;;;;4.50;98454.00;;;;5072602;28;20079;-64
2024/01/07 11:08:58;;;;;;;11.85;7.00;;;;;4.50;98443.00;;;;5070988;28;20151;-63
2024/01/07 11:11:31;;;;;;;9.82;6.82;;;;;4.60;98443.00;;;;5072180;28;20048;-64
2024/01/07 11:13:58;;;;;;;10.50;7.15;;;;;4.60;98441.00;;;;5071669;28;20055;-63
2024/01/07 11:16:43;;;;;;;9.35;5.57;;;;;4.80;98448.00;;;;5072306;28;20048;-64
2024/01/07 11:19:14;;;;;;;9.30;6.28;;;;;4.80;98455.00;;;;5071911;28;20052;-65
2024/01/07 11:21:41;;;;;;;9.05;5.90;;;;;4.80;98452.00;;;;5072015;28;20068;-62
2024/01/07 11:24:07;;;;;;;9.38;6.28;;;;;4.80;98467.00;;;;5053159;28;20045;-62
2024/01/07 11:26:34;;;;;;;10.23;6.78;;;;;4.70;98455.00;;;;5071963;28;20049;-67
2024/01/07 11:29:01;;;;;;;8.55;5.90;;;;;4.70;98456.00;;;;5071888;28;20090;-61
2024/01/07 11:31:47;;;;;;;8.95;6.60;;;;;4.70;98460.00;;;;5071879;28;20124;-61
2024/01/07 11:34:49;;;;;;;9.32;6.38;;;;;4.90;98463.00;;;;5071271;28;20036;-61
2024/01/07 11:37:16;;;;;;;7.03;5.53;;;;;4.80;98456.00;;;;5071843;28;20386;-64
2024/01/07 11:39:49;;;;;;;9.60;6.60;;;;;4.70;98464.00;;;;5071642;28;20045;-61
2024/01/07 11:42:15;;;;;;;9.02;6.63;;;;;4.60;98461.00;;;;5071803;28;20479;-61
2024/01/07 11:44:47;;;;;;;10.15;7.28;;;;;4.60;98459.00;;;;5071181;28;20490;-63
2024/01/07 11:47:17;;;;;;;9.55;6.90;;;;;4.60;98458.00;;;;5071721;28;20116;-63
2024/01/07 11:49:47;;;;;;;13.20;7.78;;;;;4.50;98459.00;;;;5070906;28;20135;-63
2024/01/07 11:52:14;;;;;;;9.93;6.97;;;;;4.50;98463.00;;;;5071841;28;20051;-64
2024/01/07 11:54:41;;;;;;;9.32;6.50;;;;;4.70;98459.00;;;;5071385;28;20109;-63
2024/01/07 11:57:10;;;;;;;8.77;6.30;;;;;4.60;98455.00;;;;5071970;28;20489;-65
2024/01/07 11:59:36;;;;;;;10.38;6.95;;;;;4.70;98473.00;;;;5075487;28;20119;-65
2024/01/07 12:02:05;;;;;;;9.68;7.32;;;;;4.60;98452.00;;;;5074455;28;20052;-65
2024/01/07 12:04:33;;;;;;;7.10;5.88;;;;;4.70;98475.00;;;;5073662;28;20052;-65
2024/01/07 12:07:01;;;;;;;10.88;7.20;;;;;4.70;98458.00;;;;5075420;28;20047;-65
2024/01/07 12:09:28;;;;;;;9.85;6.88;;;;;4.70;98459.00;;;;5075313;28;20078;-65
2024/01/07 12:11:55;;;;;;;13.02;6.50;;;;;4.90;98462.00;;;;5074114;28;20055;-65
2024/01/07 12:14:22;;;;;;;10.48;7.82;;;;;4.80;98461.00;;;;5073709;28;20454;-63
2024/01/07 12:16:48;;;;;;;11.43;7.38;;;;;4.80;98460.00;;;;5074272;28;20080;-65
2024/01/07 12:19:15;;;;;;;11.48;7.38;;;;;4.90;98460.00;;;;5075202;28;20044;-65
2024/01/07 12:21:42;;;;;;;8.40;6.18;;;;;4.90;98460.00;;;;5075208;28;20040;-64
2024/01/07 12:24:08;;;;;;;10.52;6.45;;;;;4.90;98457.00;;;;5074376;28;20045;-65
2024/01/07 12:26:37;;;;;;;8.95;5.63;;;;;4.90;98462.00;;;;5073636;28;20131;-65